createdAt,value
2019-05-14T00:03:41.787Z,94.80
2019-05-14T00:08:46.616Z,95.20
2019-05-14T00:13:52.038Z,94.20
2019-05-14T00:18:57.102Z,94.00
2019-05-14T00:24:01.959Z,93.80
2019-05-14T00:29:06.764Z,93.50
2019-05-14T00:34:11.583Z,92.60
2019-05-14T00:39:16.325Z,92.50
2019-05-14T00:44:21.653Z,92.20
2019-05-14T00:49:26.626Z,92.00
2019-05-14T00:54:32.215Z,91.80
2019-05-14T00:59:37.365Z,92.60
2019-05-14T01:04:42.860Z,92.40
2019-05-14T01:09:48.828Z,92.80
2019-05-14T01:15:07.047Z,93.20
2019-05-14T01:20:03.118Z,93.10
2019-05-14T01:25:07.499Z,93.50
2019-05-14T01:30:12.645Z,93.80
2019-05-14T01:35:17.587Z,93.90
2019-05-14T01:40:22.412Z,94.30
2019-05-14T01:45:28.316Z,94.60
2019-05-14T01:50:33.328Z,94.80
2019-05-14T01:55:38.070Z,95.00
2019-05-14T02:00:42.900Z,95.20
2019-05-14T02:05:47.717Z,95.70
2019-05-14T02:10:52.797Z,95.80
2019-05-14T02:15:57.888Z,95.60
2019-05-14T02:21:02.712Z,95.60
2019-05-14T02:26:07.542Z,95.50
2019-05-14T02:31:12.375Z,95.70
2019-05-14T02:36:19.462Z,96.20
2019-05-14T02:41:23.645Z,95.30
2019-05-14T02:46:29.622Z,95.40
2019-05-14T02:51:34.886Z,95.50
2019-05-14T02:56:40.436Z,95.40
2019-05-14T03:01:45.655Z,95.40
2019-05-14T03:06:50.475Z,95.60
2019-05-14T03:11:55.389Z,95.80
2019-05-14T03:17:00.329Z,96.00
2019-05-14T03:22:05.148Z,96.00
2019-05-14T03:27:10.223Z,96.50
2019-05-14T03:32:15.311Z,96.60
2019-05-14T03:37:23.324Z,96.90
2019-05-14T03:42:28.993Z,97.60
2019-05-14T03:47:33.017Z,98.10
2019-05-14T03:52:39.921Z,98.40
2019-05-14T03:57:44.803Z,99.10
2019-05-14T04:02:49.635Z,99.10
2019-05-14T04:07:54.468Z,99.80
2019-05-14T04:13:00.478Z,99.50
2019-05-14T04:18:05.328Z,99.90
2019-05-14T04:23:11.553Z,99.90
2019-05-14T04:28:19.397Z,99.90
2019-05-14T04:33:30.245Z,99.90
2019-05-14T04:38:33.626Z,99.90
2019-05-14T04:43:39.985Z,99.90
2019-05-14T04:48:45.012Z,99.90
2019-05-14T04:53:50.430Z,99.90
2019-05-14T04:58:55.607Z,99.90
2019-05-14T05:04:00.444Z,99.90
2019-05-14T05:09:09.439Z,99.90
2019-05-14T05:14:14.100Z,99.90
2019-05-14T05:19:19.632Z,99.90
2019-05-14T05:24:24.967Z,99.90
2019-05-14T05:29:29.649Z,99.90
2019-05-14T05:34:34.482Z,99.90
2019-05-14T05:39:39.322Z,99.90
2019-05-14T05:44:44.228Z,99.90
2019-05-14T05:49:49.064Z,99.30
2019-05-14T05:54:53.888Z,98.20
2019-05-14T05:59:59.031Z,97.90
2019-05-14T06:05:04.948Z,98.10
2019-05-14T06:10:09.883Z,97.70
2019-05-14T06:15:14.803Z,97.50
2019-05-14T06:20:19.633Z,97.60
2019-05-14T06:25:24.465Z,97.10
2019-05-14T06:30:32.560Z,97.10
2019-05-14T06:35:39.600Z,96.20
2019-05-14T06:40:43.831Z,96.50
2019-05-14T06:45:49.528Z,95.40
2019-05-14T06:50:54.413Z,95.50
2019-05-14T06:55:59.232Z,94.50
2019-05-14T07:01:04.071Z,93.60
2019-05-14T07:06:09.217Z,93.10
2019-05-14T07:11:14.324Z,91.90
2019-05-14T07:16:19.668Z,91.00
2019-05-14T07:21:24.887Z,88.00
2019-05-14T07:26:29.843Z,87.20
2019-05-14T07:31:53.997Z,84.20
2019-05-14T07:36:58.900Z,82.80
2019-05-14T07:42:03.781Z,85.20
2019-05-14T07:47:08.706Z,83.20
2019-05-14T07:52:13.534Z,82.50
2019-05-14T07:57:19.184Z,80.10
2019-05-14T08:02:24.407Z,79.70
2019-05-14T08:07:29.237Z,81.10
2019-05-14T08:12:33.988Z,78.30
2019-05-14T08:17:41.549Z,80.50
2019-05-14T08:22:48.824Z,78.80
2019-05-14T08:27:52.796Z,79.20
2019-05-14T08:32:58.632Z,73.30
2019-05-14T08:38:08.204Z,73.80
2019-05-14T08:43:09.900Z,72.30
2019-05-14T08:48:18.766Z,70.00
2019-05-14T08:53:22.831Z,70.00
2019-05-14T08:58:30.069Z,68.20
2019-05-14T09:03:34.049Z,68.30
2019-05-14T09:08:39.372Z,72.30
2019-05-14T09:13:48.816Z,69.20
2019-05-14T09:18:52.497Z,72.20
2019-05-14T09:23:58.709Z,70.70
2019-05-14T09:29:18.136Z,71.60
2019-05-14T09:34:10.237Z,72.60
2019-05-14T09:39:15.080Z,71.00
2019-05-14T09:44:19.900Z,70.40
2019-05-14T09:49:24.809Z,69.10
2019-05-14T09:54:29.759Z,68.20
2019-05-14T09:59:34.606Z,68.80
2019-05-14T10:04:39.451Z,68.70
2019-05-14T10:09:44.206Z,68.10
2019-05-14T10:14:49.055Z,70.70
2019-05-14T10:19:53.901Z,68.40
2019-05-14T10:24:58.718Z,68.30
2019-05-14T10:30:05.448Z,69.10
2019-05-14T10:35:10.484Z,68.30
2019-05-14T10:40:18.185Z,67.40
2019-05-14T10:45:21.969Z,66.60
2019-05-14T10:50:28.803Z,65.50
2019-05-14T10:55:33.255Z,64.20
2019-05-14T11:00:41.546Z,64.60
2019-05-14T11:05:44.599Z,65.00
2019-05-14T11:10:49.986Z,65.50
2019-05-14T11:15:54.900Z,66.00
2019-05-14T11:21:18.064Z,64.70
2019-05-14T11:26:06.195Z,65.00
2019-05-14T11:31:12.002Z,61.70
2019-05-14T11:36:18.774Z,61.90
2019-05-14T11:41:23.237Z,59.50
2019-05-14T11:46:42.205Z,61.90
2019-05-14T11:51:58.996Z,59.90
2019-05-14T11:56:42.037Z,59.30
2019-05-14T12:01:49.333Z,59.00
2019-05-14T12:06:54.337Z,59.10
2019-05-14T12:11:59.176Z,59.70
2019-05-14T12:17:04.152Z,56.20
2019-05-14T12:22:11.682Z,58.60
2019-05-14T12:27:15.441Z,56.30
2019-05-14T12:32:21.761Z,55.80
2019-05-14T12:37:28.805Z,53.10
2019-05-14T12:42:32.915Z,55.80
2019-05-14T12:47:38.610Z,54.50
2019-05-14T12:52:43.575Z,55.30
2019-05-14T12:57:48.717Z,54.30
2019-05-14T13:02:53.683Z,53.60
2019-05-14T13:07:58.404Z,53.80
2019-05-14T13:13:12.172Z,55.00
2019-05-14T13:18:19.245Z,56.20
2019-05-14T13:23:23.972Z,56.80
2019-05-14T13:28:29.172Z,55.30
2019-05-14T13:33:34.447Z,57.10
2019-05-14T13:38:39.610Z,54.40
2019-05-14T13:43:44.829Z,55.10
2019-05-14T13:48:50.230Z,56.00
2019-05-14T13:53:55.673Z,57.30
2019-05-14T13:59:00.545Z,57.20
2019-05-14T14:04:11.247Z,57.40
2019-05-14T14:09:12.666Z,59.30
2019-05-14T14:14:20.115Z,59.60
2019-05-14T14:19:24.177Z,57.80
2019-05-14T14:24:29.383Z,59.00
2019-05-14T14:29:34.201Z,58.90
2019-05-14T14:34:41.341Z,59.50
2019-05-14T14:39:48.337Z,59.60
2019-05-14T14:44:51.839Z,57.90
2019-05-14T14:50:00.134Z,55.90
2019-05-14T14:55:03.295Z,57.30
2019-05-14T15:00:11.291Z,59.50
2019-05-14T15:05:19.719Z,58.80
2019-05-14T15:10:23.443Z,60.00
2019-05-14T15:15:31.941Z,60.80
2019-05-14T15:20:34.883Z,61.90
2019-05-14T15:25:39.735Z,62.70
2019-05-14T15:30:44.613Z,60.70
2019-05-14T15:35:49.446Z,60.30
2019-05-14T15:40:54.272Z,61.60
2019-05-14T15:45:59.111Z,62.10
2019-05-14T15:51:03.929Z,62.20
2019-05-14T15:56:08.859Z,63.50
2019-05-14T16:01:13.693Z,63.50
2019-05-14T16:06:19.378Z,64.00
2019-05-14T16:11:24.357Z,63.00
2019-05-14T16:16:29.217Z,64.50
2019-05-14T16:21:34.031Z,65.60
2019-05-14T16:26:38.887Z,65.10
2019-05-14T16:31:43.868Z,65.50
2019-05-14T16:36:48.890Z,66.80
2019-05-14T16:41:53.709Z,67.30
2019-05-14T16:46:58.794Z,68.80
2019-05-14T16:52:08.837Z,68.70
2019-05-14T16:57:12.887Z,68.90
2019-05-14T17:02:19.132Z,68.90
2019-05-14T17:07:25.478Z,69.30
2019-05-14T17:12:48.283Z,68.90
2019-05-14T17:17:37.351Z,70.40
2019-05-14T17:22:42.182Z,71.20
2019-05-14T17:27:48.635Z,72.00
2019-05-14T17:32:53.570Z,72.40
2019-05-14T17:37:58.784Z,73.70
2019-05-14T17:43:04.036Z,73.20
2019-05-14T17:48:08.873Z,73.90
2019-05-14T17:53:13.696Z,73.10
2019-05-14T17:58:18.971Z,72.80
2019-05-14T18:03:23.979Z,72.90
2019-05-14T18:08:29.988Z,74.00
2019-05-14T18:13:35.194Z,73.70
2019-05-14T18:18:40.022Z,74.80
2019-05-14T18:23:44.845Z,74.60
2019-05-14T18:28:49.688Z,75.00
2019-05-14T18:33:54.510Z,76.00
2019-05-14T18:38:59.274Z,75.50
2019-05-14T18:44:04.085Z,75.20
2019-05-14T18:49:08.923Z,74.60
2019-05-14T18:54:13.748Z,75.40
2019-05-14T18:59:21.339Z,76.10
2019-05-14T19:04:25.018Z,76.10
2019-05-14T19:09:29.845Z,77.40
2019-05-14T19:14:34.761Z,77.30
2019-05-14T19:19:41.190Z,77.60
2019-05-14T19:24:46.411Z,77.70
2019-05-14T19:29:51.256Z,78.30
2019-05-14T19:34:56.126Z,78.00
2019-05-14T19:40:00.882Z,77.90
2019-05-14T19:45:08.518Z,77.80
2019-05-14T19:50:13.175Z,78.20
2019-05-14T19:55:18.921Z,78.40
2019-05-14T20:00:25.726Z,80.40
2019-05-14T20:05:30.576Z,81.20
2019-05-14T20:10:35.408Z,80.60
2019-05-14T20:15:40.313Z,80.60
2019-05-14T20:20:45.144Z,80.90
2019-05-14T20:25:49.884Z,80.50
2019-05-14T20:30:54.709Z,80.70
2019-05-14T20:35:59.461Z,80.30
2019-05-14T20:41:04.294Z,80.60
2019-05-14T20:46:09.215Z,80.70
2019-05-14T20:51:13.979Z,80.90
2019-05-14T20:56:19.138Z,81.70
2019-05-14T21:01:25.597Z,81.80
2019-05-14T21:06:30.425Z,81.90
2019-05-14T21:11:38.420Z,82.60
2019-05-14T21:16:42.877Z,82.50
2019-05-14T21:21:49.203Z,82.50
2019-05-14T21:26:54.168Z,82.30
2019-05-14T21:32:01.302Z,83.00
2019-05-14T21:37:05.491Z,83.40
2019-05-14T21:42:10.923Z,83.90
2019-05-14T21:47:15.898Z,83.50
2019-05-14T21:52:20.827Z,83.30
2019-05-14T21:57:25.757Z,83.90
2019-05-14T22:02:30.715Z,83.40
2019-05-14T22:07:35.520Z,84.20
2019-05-14T22:12:40.380Z,83.90
2019-05-14T22:17:45.318Z,85.50
2019-05-14T22:22:50.277Z,86.90
2019-05-14T22:28:10.705Z,86.70
2019-05-14T22:33:03.106Z,86.80
2019-05-14T22:38:07.967Z,86.70
2019-05-14T22:48:41.239Z,86.70
2019-05-14T22:53:46.048Z,86.40
2019-05-14T22:58:50.890Z,88.30
2019-05-14T23:03:55.744Z,88.50
2019-05-14T23:09:00.526Z,89.20
2019-05-14T23:14:05.369Z,90.00
2019-05-14T23:19:10.227Z,90.30
2019-05-14T23:24:14.994Z,90.90
2019-05-14T23:29:19.772Z,91.30
2019-05-14T23:34:24.627Z,91.90
2019-05-14T23:39:29.558Z,92.40
2019-05-14T23:44:34.401Z,93.20
2019-05-14T23:49:39.148Z,93.40
2019-05-14T23:54:43.978Z,94.10
2019-05-14T23:59:48.825Z,94.40
